createdAt,value
2023-03-05T00:00:02.122Z,2.27
2023-03-05T00:04:06.876Z,2.27
2023-03-05T00:08:11.373Z,2.28
2023-03-05T00:12:14.349Z,2.27
2023-03-05T00:16:17.525Z,2.27
2023-03-05T00:20:20.531Z,2.27
2023-03-05T00:24:24.979Z,2.25
2023-03-05T00:28:28.296Z,2.24
2023-03-05T00:32:31.641Z,2.21
2023-03-05T00:36:34.924Z,2.19
2023-03-05T00:40:40.437Z,2.20
2023-03-05T00:44:43.465Z,2.19
2023-03-05T00:48:46.998Z,2.19
2023-03-05T00:52:50.029Z,2.19
2023-03-05T00:56:54.574Z,2.18
2023-03-05T01:00:59.485Z,2.15
2023-03-05T01:05:02.634Z,2.13
2023-03-05T01:09:05.661Z,2.15
2023-03-05T01:13:10.485Z,2.14
2023-03-05T01:17:13.582Z,2.15
2023-03-05T01:21:17.470Z,2.18
2023-03-05T01:25:21.036Z,2.18
2023-03-05T01:29:25.710Z,2.16
2023-03-05T01:33:28.750Z,2.15
2023-03-05T01:37:31.909Z,2.15
2023-03-05T01:41:35.851Z,2.14
2023-03-05T01:45:41.434Z,2.12
2023-03-05T01:49:44.682Z,2.12
2023-03-05T01:53:48.564Z,2.16
2023-03-05T01:57:55.087Z,2.15
2023-03-05T02:02:00.909Z,2.14
2023-03-05T02:06:04.330Z,2.13
2023-03-05T02:10:17.184Z,2.16
2023-03-05T02:14:20.631Z,2.18
2023-03-05T02:18:25.674Z,2.18
2023-03-05T02:22:30.054Z,2.17
2023-03-05T02:26:33.234Z,2.14
2023-03-05T02:30:37.442Z,2.12
2023-03-05T02:34:41.144Z,2.17
2023-03-05T02:38:47.235Z,2.18
2023-03-05T02:42:50.958Z,2.19
2023-03-05T02:46:54.299Z,2.20
2023-03-05T02:50:59.033Z,2.19
2023-03-05T02:55:03.510Z,2.14
2023-03-05T02:59:07.309Z,2.18
2023-03-05T03:03:10.899Z,2.17
2023-03-05T03:07:14.748Z,2.20
2023-03-05T03:11:19.254Z,2.17
2023-03-05T03:15:22.829Z,2.18
2023-03-05T03:19:25.868Z,2.19
2023-03-05T03:23:29.045Z,2.18
2023-03-05T03:27:33.708Z,2.17
2023-03-05T03:31:37.193Z,2.14
2023-03-05T03:35:40.364Z,2.14
2023-03-05T03:39:43.433Z,2.15
2023-03-05T03:43:47.924Z,2.17
2023-03-05T03:47:51.553Z,2.14
2023-03-05T03:51:55.696Z,2.17
2023-03-05T03:55:59.986Z,2.23
2023-03-05T04:00:07.176Z,2.23
2023-03-05T04:04:15.706Z,2.26
2023-03-05T04:08:18.782Z,2.25
2023-03-05T04:12:22.073Z,2.24
2023-03-05T04:16:26.611Z,2.19
2023-03-05T04:20:29.714Z,2.17
2023-03-05T04:24:33.140Z,2.20
2023-03-05T04:28:36.291Z,2.19
2023-03-05T04:32:40.652Z,2.20
2023-03-05T04:36:43.991Z,2.17
2023-03-05T04:40:47.193Z,2.14
2023-03-05T04:44:51.001Z,2.15
2023-03-05T04:48:56.054Z,2.17
2023-03-05T04:53:00.606Z,2.14
2023-03-05T04:57:03.628Z,2.13
2023-03-05T05:01:08.060Z,2.15
2023-03-05T05:05:15.135Z,2.17
2023-03-05T05:09:18.212Z,2.17
2023-03-05T05:13:21.161Z,2.19
2023-03-05T05:17:24.238Z,2.19
2023-03-05T05:21:28.581Z,2.21
2023-03-05T05:25:31.656Z,2.20
2023-03-05T05:29:34.900Z,2.21
2023-03-05T05:33:38.153Z,2.24
2023-03-05T05:37:42.778Z,2.26
2023-03-05T05:41:46.325Z,2.29
2023-03-05T05:45:49.627Z,2.31
2023-03-05T05:49:53.066Z,2.32
2023-03-05T05:53:57.641Z,2.36
2023-03-05T05:58:00.784Z,2.36
2023-03-05T06:02:03.885Z,2.38
2023-03-05T06:06:10.836Z,2.41
2023-03-05T06:10:15.456Z,2.41
2023-03-05T06:14:18.702Z,2.43
2023-03-05T06:18:21.717Z,2.41
2023-03-05T06:22:24.819Z,2.43
2023-03-05T06:26:29.202Z,2.40
2023-03-05T06:30:32.410Z,2.41
2023-03-05T06:34:35.402Z,2.40
2023-03-05T06:38:38.929Z,2.45
2023-03-05T06:42:43.392Z,2.52
2023-03-05T06:46:46.637Z,2.53
2023-03-05T06:50:49.610Z,2.53
2023-03-05T06:54:55.816Z,2.55
2023-03-05T06:59:00.411Z,2.55
2023-03-05T07:03:03.615Z,2.53
2023-03-05T07:07:06.866Z,2.55
2023-03-05T07:11:11.668Z,2.53
2023-03-05T07:15:16.025Z,2.56
2023-03-05T07:19:19.227Z,2.57
2023-03-05T07:23:22.222Z,2.61
2023-03-05T07:27:25.660Z,2.62
2023-03-05T07:31:31.951Z,2.65
2023-03-05T07:35:35.228Z,2.70
2023-03-05T07:39:38.484Z,2.74
2023-03-05T07:43:42.030Z,2.79
2023-03-05T07:47:46.543Z,2.81
2023-03-05T07:51:49.577Z,2.85
2023-03-05T07:55:52.598Z,2.89
2023-03-05T07:59:55.833Z,2.88
2023-03-05T08:04:00.355Z,2.92
2023-03-05T08:08:03.676Z,2.91
2023-03-05T08:12:07.137Z,2.86
2023-03-05T08:16:13.834Z,2.95
2023-03-05T08:20:19.263Z,2.98
2023-03-05T08:24:23.425Z,3.03
2023-03-05T08:28:26.418Z,3.04
2023-03-05T08:32:29.571Z,3.04
2023-03-05T08:36:34.165Z,3.12
2023-03-05T08:40:37.621Z,3.18
2023-03-05T08:44:40.703Z,3.20
2023-03-05T08:48:44.061Z,3.24
2023-03-05T08:52:48.503Z,3.28
2023-03-05T08:56:51.599Z,3.32
2023-03-05T09:00:54.689Z,3.37
2023-03-05T09:04:57.732Z,3.38
2023-03-05T09:09:02.116Z,3.39
2023-03-05T09:13:05.189Z,3.40
2023-03-05T09:17:09.918Z,3.45
2023-03-05T09:21:16.076Z,3.58
2023-03-05T09:25:20.653Z,3.68
2023-03-05T09:29:23.710Z,3.77
2023-03-05T09:33:26.714Z,3.92
2023-03-05T09:37:30.078Z,4.04
2023-03-05T09:41:49.003Z,4.11
2023-03-05T09:46:07.381Z,4.17
2023-03-05T09:50:20.656Z,4.27
2023-03-05T09:54:30.270Z,4.37
2023-03-05T09:58:38.407Z,4.45
2023-03-05T10:02:49.076Z,4.53
2023-03-05T10:06:56.796Z,4.63
2023-03-05T10:11:03.718Z,4.67
2023-03-05T10:15:14.024Z,4.70
2023-03-05T10:19:38.085Z,4.76
2023-03-05T10:24:04.420Z,4.88
2023-03-05T10:28:17.842Z,4.90
2023-03-05T10:32:37.148Z,4.84
2023-03-05T10:36:57.140Z,4.83
2023-03-05T10:41:08.871Z,4.91
2023-03-05T10:45:16.475Z,4.94
2023-03-05T10:49:23.749Z,4.95
2023-03-05T10:53:29.924Z,5.03
2023-03-05T10:57:33.383Z,5.13
2023-03-05T11:01:37.468Z,5.15
2023-03-05T11:05:47.934Z,5.18
2023-03-05T11:10:05.796Z,5.17
2023-03-05T11:14:29.975Z,5.15
2023-03-05T11:18:35.371Z,5.08
2023-03-05T11:22:39.865Z,5.03
2023-03-05T11:26:51.655Z,5.00
2023-03-05T11:31:03.832Z,4.96
2023-03-05T11:35:30.449Z,4.95
2023-03-05T11:39:38.411Z,4.92
2023-03-05T11:43:43.260Z,4.88
2023-03-05T11:47:50.082Z,4.85
2023-03-05T11:52:01.293Z,4.79
2023-03-05T11:56:17.470Z,4.76
2023-03-05T12:00:28.515Z,4.68
2023-03-05T12:04:38.785Z,4.66
2023-03-05T12:08:45.737Z,4.72
2023-03-05T12:12:56.642Z,4.66
2023-03-05T12:17:05.898Z,4.62
2023-03-05T12:21:16.407Z,4.63
2023-03-05T12:25:29.972Z,4.53
2023-03-05T12:29:41.240Z,4.45
2023-03-05T12:33:45.327Z,4.34
2023-03-05T12:38:29.529Z,4.30
2023-03-05T12:42:53.796Z,4.18
2023-03-05T12:47:23.536Z,4.14
2023-03-05T12:51:36.084Z,4.07
2023-03-05T12:55:46.850Z,4.03
2023-03-05T12:59:54.688Z,3.97
2023-03-05T13:04:04.236Z,3.95
2023-03-05T13:08:14.849Z,3.96
2023-03-05T13:12:19.075Z,3.93
2023-03-05T13:16:25.255Z,4.00
2023-03-05T13:20:37.712Z,3.93
2023-03-05T13:24:40.972Z,3.96
2023-03-05T13:28:45.426Z,3.92
2023-03-05T13:32:52.000Z,3.91
2023-03-05T13:37:00.917Z,3.92
2023-03-05T13:41:20.150Z,3.87
2023-03-05T13:45:26.461Z,3.94
2023-03-05T13:49:29.963Z,3.94
2023-03-05T13:53:35.107Z,3.97
2023-03-05T13:57:40.293Z,3.99
2023-03-05T14:01:45.432Z,4.02
2023-03-05T14:05:49.977Z,4.03
2023-03-05T14:09:56.682Z,4.02
2023-03-05T14:14:06.630Z,4.05
2023-03-05T14:18:19.685Z,4.08
2023-03-05T14:22:33.908Z,4.09
2023-03-05T14:26:41.264Z,4.09
2023-03-05T14:30:47.219Z,4.04
2023-03-05T14:34:54.871Z,4.01
2023-03-05T14:38:58.461Z,4.07
2023-03-05T14:43:04.149Z,4.11
2023-03-05T14:47:07.988Z,4.12
2023-03-05T14:51:12.618Z,4.16
2023-03-05T14:55:16.888Z,4.12
2023-03-05T14:59:22.160Z,4.09
2023-03-05T15:03:26.308Z,4.14
2023-03-05T15:07:32.438Z,4.14
2023-03-05T15:11:35.725Z,4.18
2023-03-05T15:15:40.806Z,4.17
2023-03-05T15:19:43.893Z,4.14
2023-03-05T15:23:46.875Z,4.20
2023-03-05T15:27:51.048Z,4.26
2023-03-05T15:31:55.651Z,4.29
2023-03-05T15:35:59.538Z,4.25
2023-03-05T15:40:03.025Z,4.22
2023-03-05T15:44:06.405Z,4.24
2023-03-05T15:48:11.028Z,4.20
2023-03-05T15:52:14.353Z,4.17
2023-03-05T15:56:18.001Z,4.14
2023-03-05T16:00:25.804Z,4.15
2023-03-05T16:04:30.896Z,4.09
2023-03-05T16:08:36.419Z,4.10
2023-03-05T16:12:42.995Z,4.10
2023-03-05T16:16:46.243Z,4.11
2023-03-05T16:20:50.857Z,4.09
2023-03-05T16:24:53.896Z,4.09
2023-03-05T16:28:57.005Z,4.09
2023-03-05T16:33:00.230Z,4.05
2023-03-05T16:37:06.883Z,4.07
2023-03-05T16:41:09.934Z,4.05
2023-03-05T16:45:13.345Z,4.03
2023-03-05T16:49:17.046Z,4.08
2023-03-05T16:53:21.447Z,4.03
2023-03-05T16:57:25.743Z,4.00
2023-03-05T17:01:30.266Z,4.04
2023-03-05T17:05:36.178Z,4.02
2023-03-05T17:09:40.995Z,4.00
2023-03-05T17:13:46.496Z,4.02
2023-03-05T17:17:51.568Z,3.97
2023-03-05T17:21:54.651Z,3.96
2023-03-05T17:25:59.113Z,3.88
2023-03-05T17:30:02.467Z,3.83
2023-03-05T17:34:05.677Z,3.86
2023-03-05T17:38:10.923Z,3.94
2023-03-05T17:42:15.770Z,4.00
2023-03-05T17:46:18.894Z,3.97
2023-03-05T17:50:22.489Z,4.02
2023-03-05T17:54:29.279Z,4.09
2023-03-05T17:58:33.876Z,4.14
2023-03-05T18:02:36.981Z,4.13
2023-03-05T18:06:39.968Z,4.13
2023-03-05T18:10:43.031Z,4.13
2023-03-05T18:14:47.368Z,4.14
2023-03-05T18:18:50.454Z,4.09
2023-03-05T18:22:53.942Z,4.07
2023-03-05T18:26:56.996Z,4.13
2023-03-05T18:31:02.637Z,4.15
2023-03-05T18:35:08.102Z,4.17
2023-03-05T18:39:16.073Z,4.22
2023-03-05T18:43:20.757Z,4.24
2023-03-05T18:47:25.112Z,4.21
2023-03-05T18:51:29.593Z,4.27
2023-03-05T18:55:32.618Z,4.32
2023-03-05T18:59:36.690Z,4.34
2023-03-05T19:03:41.075Z,4.38
2023-03-05T19:07:44.965Z,4.44
2023-03-05T19:11:48.671Z,4.48
2023-03-05T19:15:51.777Z,4.52
2023-03-05T19:19:58.864Z,4.54
2023-03-05T19:24:01.923Z,4.55
2023-03-05T19:28:05.005Z,4.55
2023-03-05T19:32:09.778Z,4.52
2023-03-05T19:36:14.460Z,4.48
2023-03-05T19:40:18.803Z,4.49
2023-03-05T19:44:21.867Z,4.47
2023-03-05T19:48:24.978Z,4.44
2023-03-05T19:52:29.393Z,4.44
2023-03-05T19:56:32.466Z,4.45
2023-03-05T20:00:35.657Z,4.44
2023-03-05T20:04:38.733Z,4.41
2023-03-05T20:08:43.832Z,4.43
2023-03-05T20:12:48.182Z,4.47
2023-03-05T20:16:51.683Z,4.49
2023-03-05T20:20:57.977Z,4.48
2023-03-05T20:25:02.302Z,4.46
2023-03-05T20:29:06.050Z,4.38
2023-03-05T20:33:09.227Z,4.32
2023-03-05T20:37:12.293Z,4.33
2023-03-05T20:41:18.578Z,4.33
2023-03-05T20:45:21.688Z,4.34
2023-03-05T20:49:24.672Z,4.37
2023-03-05T20:53:27.793Z,4.40
2023-03-05T20:57:32.608Z,4.41
2023-03-05T21:01:38.126Z,4.37
2023-03-05T21:05:41.158Z,4.38
2023-03-05T21:09:44.246Z,4.38
2023-03-05T21:13:48.806Z,4.33
2023-03-05T21:17:55.142Z,4.33
2023-03-05T21:21:58.189Z,4.34
2023-03-05T21:26:02.085Z,4.34
2023-03-05T21:30:07.654Z,4.35
2023-03-05T21:34:10.870Z,4.36
2023-03-05T21:38:14.750Z,4.35
2023-03-05T21:42:17.900Z,4.35
2023-03-05T21:46:22.263Z,4.34
2023-03-05T21:50:26.531Z,4.31
2023-03-05T21:54:29.542Z,4.31
2023-03-05T21:58:34.256Z,4.29
2023-03-05T22:02:39.364Z,4.28
2023-03-05T22:06:42.460Z,4.27
2023-03-05T22:10:45.485Z,4.28
2023-03-05T22:14:48.537Z,4.28
2023-03-05T22:18:53.687Z,4.27
2023-03-05T22:22:56.740Z,4.24
2023-03-05T22:26:59.706Z,4.21
2023-03-05T22:31:03.296Z,4.20
2023-03-05T22:35:12.220Z,4.18
2023-03-05T22:39:15.228Z,4.16
2023-03-05T22:43:19.376Z,4.15
2023-03-05T22:47:22.442Z,4.15
2023-03-05T22:51:26.815Z,4.15
2023-03-05T22:55:29.969Z,4.13
2023-03-05T22:59:32.951Z,4.13
2023-03-05T23:03:36.203Z,4.12
2023-03-05T23:07:42.104Z,4.08
2023-03-05T23:11:45.251Z,4.07
2023-03-05T23:15:48.304Z,4.05
2023-03-05T23:19:51.410Z,4.05
2023-03-05T23:23:57.638Z,4.02
2023-03-05T23:28:01.383Z,3.97
2023-03-05T23:32:04.585Z,3.90
2023-03-05T23:36:08.064Z,3.85
2023-03-05T23:40:17.004Z,3.79
2023-03-05T23:44:20.300Z,3.75
2023-03-05T23:48:24.304Z,3.74
2023-03-05T23:52:27.367Z,3.74
2023-03-05T23:56:32.463Z,3.72
